Murray City, OH (43144)

1:15 AM EST on February 10, 2016 (GMT -0500)
kimberly ohio | | Change Station
CLOSE
Current Station
Personal Weather Station
Location: Nelsonville, OH
Elevation: 830 ft
Nearby Weather Stations
Active Advisory: Winter Weather Advisory Active Notice: Local Storm Report

Elev 830 ft 39.41 °N, 82.23 °W | Updated 6 minutes ago

Overcast
Overcast
21.6 °F
Feels Like 22 °F
N
0.0
Wind Variable Wind from ESE

Today
High -- | Low -- °F
--% Chance of Precip.
Yesterday
High -- | Low -- °F
Precip. -- in
Pressure 29.86 in
Visibility 5.0 miles
Clouds Overcast 2100 ft
Windchill 22 °F
Dew Point 20 °F
Humidity 92%
Rainfall 0.00 in
Snow Depth Not available.
7:27 AM 5:58 PM
Waxing Crescent, 4% visible
METAR KUNI 100550Z AUTO 25008KT 5SM -SN OVC021 M05/M07 A2986 RMK AO2 T10551075 11043 21055
Pressure 29.86 in
Visibility 5.0 miles
Clouds Overcast 2100 ft
Windchill 22 °F
Dew Point 20 °F
Humidity 92%
Rainfall 0.00 in
Snow Depth Not available.
7:27 AM 5:58 PM
Waxing Crescent, 4% visible
METAR KUNI 100550Z AUTO 25008KT 5SM -SN OVC021 M05/M07 A2986 RMK AO2 T10551075 11043 21055

10-Day Weather Forecast

Almanac

Astronomy

Feb. 10, 2016 Rise Set
Actual Time
Civil Twilight
Nautical Twilight
Astronomical Twilight
Moon
Length of Visible Light
Length of Day
Tomorrow will be .
, % of the Moon is Illuminated

Today's Extremes

State Highs State Lows

Community

WunderPhotos

Upload Photos

1,891,826 photos uploaded!

WunderBlog® & News

Nearby

Air Quality

  Air Quality AQ Index Pollutant
Not available.

Snow Depth

Station Depth Elevation

Earthquake Activity

City Distance Mag. Time & Date
Minimum magnitude displayed is 2.5.

Coastal Water Temperatures

Place Temperature

Stations

Nearby Weather Stations

Station Location Temp. Windchill Dew Point Humidity Wind Precip. Elev Updated Type
                   

Watches & Warnings

Winter Weather Advisory
Issued: 9:40 PM EST Feb. 9, 2016 – National Weather Service

... Winter Weather Advisory remains in effect until 6 PM EST
Wednesday...

* timing... occasional snow showers will occur through Wednesday
afternoon. Greatest snow accumulation from the snow showers
will be from Wednesday mid morning through mid afternoon.

* Accumulations... additional snow accumulation of 1 to 2 inches
can be expected.

* Impacts... travel difficulties are expected due to reduced
visibilities and snow accumulations.

Precautionary/preparedness actions...

Remember... a Winter Weather Advisory for snow means that periods
of snow will cause primarily travel difficulties. Be prepared for
snow covered roads and limited visibilities... and use caution
while driving. Stay tuned to NOAA Weather Radio or your favorite
source of information for the latest updates. Additional details
can also be found at www.Weather.Gov/iln as well as on our
facebook and twitter pages.